Time;durP1;ratioP1;P1;durP2;ratioP2;P2;SDS_P1;SDS_P2;PMS_P1;PMS_P2;Temp;Humidity;BMP_temperature;BMP_pressure;BME280_temperature;BME280_humidity;BME280_pressure;Samples;Min_cycle;Max_cycle;Signal;HPM_P1;HPM_P2
2021/12/05 00:22:55;;;;;;;15.02;12.32;;;22.40;83.20;;;;;;6175790;28;88348;-66
2021/12/05 00:26:01;;;;;;;18.67;12.00;;;22.40;83.20;;;;;;6211986;28;89298;-66
2021/12/05 00:29:18;;;;;;;17.67;12.98;;;22.40;83.10;;;;;;6195486;28;89167;-66
2021/12/05 00:32:29;;;;;;;18.73;13.10;;;22.40;83.00;;;;;;6218527;28;89913;-66
2021/12/05 00:36:06;;;;;;;18.63;12.63;;;22.40;83.10;;;;;;6208670;28;89406;-66
2021/12/05 00:49:31;;;;;;;15.10;12.00;;;22.40;83.40;;;;;;6197769;28;87380;-66
2021/12/05 00:56:04;;;;;;;15.63;11.85;;;22.30;83.30;;;;;;6216403;28;86758;-66
2021/12/05 01:02:41;;;;;;;14.02;10.82;;;22.30;83.30;;;;;;6166042;28;88572;-65
2021/12/05 01:09:25;;;;;;;13.10;10.35;;;22.30;83.20;;;;;;6197241;28;87210;-66
2021/12/05 01:13:13;;;;;;;13.63;10.75;;;22.30;83.10;;;;;;6207994;28;89577;-67
2021/12/05 01:16:18;;;;;;;15.25;10.02;;;22.30;83.00;;;;;;6190286;28;88642;-66
2021/12/05 01:19:40;;;;;;;12.63;10.27;;;22.40;83.00;;;;;;6202343;28;89166;-66
2021/12/05 01:22:49;;;;;;;13.25;10.68;;;22.40;82.80;;;;;;6196379;28;89180;-66
2021/12/05 01:25:59;;;;;;;11.23;9.90;;;22.40;82.70;;;;;;6190552;28;88615;-68
2021/12/05 01:29:17;;;;;;;13.32;9.68;;;22.40;82.50;;;;;;6197112;28;88362;-67
2021/12/05 01:32:34;;;;;;;14.45;9.90;;;22.40;82.20;;;;;;6195236;28;89020;-67
2021/12/05 01:39:12;;;;;;;13.20;10.00;;;22.40;81.90;;;;;;6202241;28;89655;-68
2021/12/05 01:56:03;;;;;;;10.68;8.98;;;22.30;81.30;;;;;;6206084;28;89173;-66
2021/12/05 01:59:25;;;;;;;13.35;8.95;;;22.30;81.20;;;;;;6207199;28;89368;-66
2021/12/05 02:09:35;;;;;;;10.57;8.70;;;22.30;80.90;;;;;;6208089;28;87351;-66
2021/12/05 02:29:38;;;;;;;9.60;7.88;;;22.30;80.10;;;;;;6210904;28;88734;-65
2021/12/05 02:39:50;;;;;;;9.07;7.72;;;22.20;79.90;;;;;;6168718;28;87606;-66
2021/12/05 02:42:59;;;;;;;9.02;7.45;;;22.30;79.90;;;;;;6202006;28;88974;-66
2021/12/05 02:46:05;;;;;;;9.00;7.53;;;22.20;79.70;;;;;;6213098;28;90251;-66
2021/12/05 02:49:10;;;;;;;8.80;6.90;;;22.30;79.60;;;;;;6198607;28;89233;-66
2021/12/05 02:52:21;;;;;;;7.93;6.78;;;22.20;79.60;;;;;;6204163;28;87154;-66
2021/12/05 02:55:32;;;;;;;8.45;7.22;;;22.20;79.30;;;;;;6209553;28;89126;-66
2021/12/05 02:58:40;;;;;;;8.85;7.18;;;22.20;79.30;;;;;;6215278;28;89144;-66
2021/12/05 03:01:46;;;;;;;7.72;6.50;;;22.20;79.30;;;;;;6218171;28;89105;-66
2021/12/05 03:04:51;;;;;;;10.23;7.55;;;22.20;79.20;;;;;;6202227;28;88700;-66
2021/12/05 03:07:58;;;;;;;7.50;6.47;;;22.20;79.10;;;;;;6199265;28;87226;-66
2021/12/05 03:11:03;;;;;;;7.88;6.82;;;22.20;79.30;;;;;;6214721;28;87958;-66
2021/12/05 03:14:05;;;;;;;9.05;7.20;;;22.10;79.10;;;;;;6205455;28;88985;-66
2021/12/05 03:17:07;;;;;;;7.60;6.53;;;22.10;80.00;;;;;;6201659;28;90074;-66
2021/12/05 03:20:11;;;;;;;8.13;6.60;;;22.10;79.00;;;;;;6214959;28;89027;-66
2021/12/05 03:23:13;;;;;;;8.80;6.95;;;22.10;79.00;;;;;;6206028;28;90005;-66
2021/12/05 03:26:20;;;;;;;7.07;6.32;;;22.10;79.00;;;;;;6201781;28;89536;-67
2021/12/05 03:29:23;;;;;;;8.75;6.25;;;22.10;79.00;;;;;;6211613;28;89062;-66
2021/12/05 03:32:25;;;;;;;8.05;6.22;;;22.00;78.80;;;;;;6194429;28;89098;-66
2021/12/05 03:35:30;;;;;;;6.93;5.88;;;22.00;78.90;;;;;;6203382;28;87871;-67
2021/12/05 03:38:33;;;;;;;8.23;6.20;;;22.00;78.80;;;;;;6204386;28;88376;-66
2021/12/05 03:41:38;;;;;;;8.05;6.10;;;22.00;78.80;;;;;;6205939;28;89119;-67
2021/12/05 03:44:40;;;;;;;6.95;6.05;;;22.00;78.80;;;;;;6202690;28;88318;-66
2021/12/05 03:47:42;;;;;;;7.18;5.95;;;22.00;78.80;;;;;;6207650;28;88883;-67
2021/12/05 03:50:45;;;;;;;6.80;6.10;;;22.00;78.70;;;;;;6214387;28;89302;-67
2021/12/05 03:53:49;;;;;;;6.80;5.80;;;22.00;78.60;;;;;;6209938;28;88815;-67
2021/12/05 03:56:54;;;;;;;6.25;5.65;;;22.00;78.70;;;;;;6215290;28;89474;-67
2021/12/05 03:59:56;;;;;;;6.20;5.35;;;22.00;78.70;;;;;;6207293;28;89770;-68
2021/12/05 04:03:02;;;;;;;8.77;6.32;;;21.90;78.60;;;;;;6210743;28;87830;-67
2021/12/05 04:06:07;;;;;;;7.50;5.32;;;21.90;78.60;;;;;;6207837;28;89183;-67
2021/12/05 04:09:11;;;;;;;7.03;5.88;;;21.90;78.50;;;;;;6209461;28;88681;-67
2021/12/05 04:12:16;;;;;;;5.80;5.20;;;21.90;78.60;;;;;;6222282;28;89313;-67
2021/12/05 04:15:18;;;;;;;7.78;5.53;;;21.90;78.60;;;;;;6209571;28;89146;-67
2021/12/05 04:18:20;;;;;;;5.60;5.00;;;21.90;78.50;;;;;;6202247;28;89981;-67
2021/12/05 04:21:22;;;;;;;6.50;5.55;;;21.90;78.50;;;;;;6214045;28;89292;-67
2021/12/05 04:24:25;;;;;;;6.25;5.38;;;21.90;78.60;;;;;;6219796;28;89082;-66
2021/12/05 04:27:29;;;;;;;7.68;5.43;;;21.90;78.60;;;;;;6205685;28;88269;-67
2021/12/05 04:30:31;;;;;;;6.88;5.57;;;21.90;78.60;;;;;;6215812;28;89067;-67
2021/12/05 04:33:33;;;;;;;8.00;5.63;;;21.90;78.50;;;;;;6206360;28;89343;-67
2021/12/05 04:36:36;;;;;;;7.70;6.18;;;21.80;78.50;;;;;;6206701;28;88003;-66
2021/12/05 04:39:38;;;;;;;6.00;5.40;;;21.80;78.50;;;;;;6207633;28;87309;-67
2021/12/05 04:42:42;;;;;;;6.25;5.65;;;21.80;78.40;;;;;;6208849;28;89384;-67
2021/12/05 04:45:46;;;;;;;7.03;5.10;;;21.80;78.40;;;;;;6209258;28;88990;-66
2021/12/05 04:48:50;;;;;;;5.97;5.25;;;21.80;78.30;;;;;;6206535;28;90285;-67
2021/12/05 04:51:53;;;;;;;6.40;5.63;;;21.80;78.40;;;;;;6196615;28;88961;-67
2021/12/05 04:54:55;;;;;;;6.20;5.60;;;21.80;78.50;;;;;;6229084;28;89120;-67
2021/12/05 04:57:58;;;;;;;6.43;5.70;;;21.80;78.40;;;;;;6217424;28;89010;-67
2021/12/05 05:01:01;;;;;;;5.72;5.20;;;21.80;78.40;;;;;;6211773;28;88993;-67
2021/12/05 05:04:09;;;;;;;6.70;6.00;;;21.70;78.40;;;;;;6226042;28;89054;-67
2021/12/05 05:07:17;;;;;;;6.85;5.88;;;21.70;78.40;;;;;;6221796;28;89319;-67
2021/12/05 05:10:22;;;;;;;7.15;5.80;;;21.70;78.30;;;;;;6223884;28;88521;-67
2021/12/05 05:13:26;;;;;;;6.25;5.65;;;21.70;78.40;;;;;;6214543;28;89066;-67
2021/12/05 05:16:29;;;;;;;6.05;5.45;;;21.70;78.30;;;;;;6207533;28;87950;-67
2021/12/05 05:19:36;;;;;;;6.35;5.68;;;21.70;78.30;;;;;;6207390;28;89948;-67
2021/12/05 05:22:43;;;;;;;6.40;5.80;;;21.70;78.30;;;;;;6216895;28;89099;-67
2021/12/05 05:29:32;;;;;;;6.95;6.25;;;21.70;78.30;;;;;;6218070;28;86935;-67
2021/12/05 05:46:09;;;;;;;6.32;5.70;;;21.70;78.10;;;;;;6199493;28;87399;-67
2021/12/05 05:49:15;;;;;;;6.30;5.70;;;21.70;78.20;;;;;;6208418;28;89219;-67
2021/12/05 05:52:19;;;;;;;6.07;5.47;;;21.60;78.20;;;;;;6211552;28;89983;-67
2021/12/05 05:55:21;;;;;;;6.90;5.63;;;21.60;78.30;;;;;;6213631;28;89307;-66
2021/12/05 05:58:28;;;;;;;6.57;5.57;;;21.60;78.30;;;;;;6215201;28;89028;-67
2021/12/05 06:01:57;;;;;;;6.40;5.80;;;21.60;78.30;;;;;;6203408;28;89076;-67
2021/12/05 06:04:59;;;;;;;6.32;5.60;;;21.60;78.30;;;;;;6215650;28;89506;-67
2021/12/05 06:08:01;;;;;;;6.32;5.60;;;21.60;78.40;;;;;;6216158;28;87958;-66
2021/12/05 06:11:07;;;;;;;5.82;5.25;;;21.60;78.40;;;;;;6218762;28;88928;-66
2021/12/05 06:14:09;;;;;;;6.68;6.00;;;21.60;78.30;;;;;;6204934;28;88357;-67
2021/12/05 06:17:12;;;;;;;6.25;5.53;;;21.60;78.30;;;;;;6214626;28;89034;-66
2021/12/05 06:20:16;;;;;;;5.53;4.97;;;21.60;78.30;;;;;;6206786;28;88312;-67
2021/12/05 06:23:18;;;;;;;6.57;5.78;;;21.60;78.30;;;;;;6206846;28;90015;-67
2021/12/05 06:26:22;;;;;;;5.90;5.10;;;21.60;78.30;;;;;;6210493;28;89080;-67
2021/12/05 06:29:24;;;;;;;6.13;5.07;;;21.50;78.30;;;;;;6222760;28;87940;-67
2021/12/05 06:42:48;;;;;;;7.90;5.68;;;21.50;78.10;;;;;;6209913;28;87241;-67
2021/12/05 06:49:10;;;;;;;7.03;5.70;;;21.50;78.80;;;;;;6202776;28;88585;-67
2021/12/05 06:52:31;;;;;;;6.22;5.63;;;21.50;77.80;;;;;;6206042;28;89237;-67
2021/12/05 06:55:33;;;;;;;6.50;5.80;;;21.50;77.80;;;;;;6203585;28;89980;-67
2021/12/05 06:58:36;;;;;;;5.88;5.30;;;21.50;77.90;;;;;;6207229;28;89562;-67
2021/12/05 07:01:38;;;;;;;6.78;5.53;;;21.50;77.80;;;;;;6224043;28;89087;-67
2021/12/05 07:05:00;;;;;;;6.25;5.63;;;21.50;77.80;;;;;;6206132;28;89385;-67
2021/12/05 07:08:03;;;;;;;6.60;5.53;;;21.50;77.90;;;;;;6199071;28;89136;-66
2021/12/05 07:11:12;;;;;;;6.15;5.50;;;21.50;77.90;;;;;;6197789;28;89078;-67
2021/12/05 07:14:33;;;;;;;6.00;5.32;;;21.50;78.00;;;;;;6192246;28;89140;-67
2021/12/05 07:20:51;;;;;;;5.40;4.90;;;21.50;78.10;;;;;;6194702;28;87360;-67
2021/12/05 07:24:02;;;;;;;5.85;5.22;;;21.40;78.10;;;;;;6203034;28;89128;-67
2021/12/05 07:40:40;;;;;;;5.88;4.70;;;21.40;79.30;;;;;;6196009;28;87045;-66
2021/12/05 07:43:42;;;;;;;5.53;4.97;;;21.50;79.20;;;;;;6198414;28;89848;-65
2021/12/05 07:46:46;;;;;;;5.50;4.80;;;21.40;79.30;;;;;;6194500;28;89023;-66
2021/12/05 07:49:49;;;;;;;5.50;4.90;;;21.50;79.50;;;;;;6196661;28;88333;-65
2021/12/05 07:52:58;;;;;;;5.68;5.10;;;21.40;79.70;;;;;;6193933;28;88312;-65
2021/12/05 07:56:09;;;;;;;5.20;4.70;;;21.40;79.80;;;;;;6199844;28;89377;-65
2021/12/05 07:59:22;;;;;;;5.10;4.60;;;21.40;79.80;;;;;;6205357;28;90316;-65
2021/12/05 08:15:46;;;;;;;4.72;4.32;;;21.50;79.40;;;;;;6211192;28;86951;-66
2021/12/05 08:18:48;;;;;;;5.45;4.53;;;21.50;79.30;;;;;;6209673;28;89135;-66
2021/12/05 08:21:55;;;;;;;4.70;4.30;;;21.50;79.20;;;;;;6204919;28;88434;-66
2021/12/05 08:25:07;;;;;;;5.15;4.30;;;21.50;79.20;;;;;;6207075;28;88298;-66
2021/12/05 08:28:17;;;;;;;6.30;4.65;;;21.50;79.10;;;;;;6197714;28;89482;-66
2021/12/05 08:31:30;;;;;;;5.30;4.60;;;21.50;79.10;;;;;;6211755;28;90043;-66
2021/12/05 08:34:46;;;;;;;4.90;4.40;;;21.50;79.10;;;;;;6207864;28;88174;-65
2021/12/05 08:45:08;;;;;;;5.88;4.25;;;21.50;79.10;;;;;;6202573;28;89212;-66
2021/12/05 09:08:49;;;;;;;4.05;3.65;;;21.50;80.60;;;;;;6211885;28;87900;-65
2021/12/05 09:22:35;;;;;;;6.43;4.20;;;21.40;80.10;;;;;;6205036;28;88548;-64
2021/12/05 09:29:26;;;;;;;4.50;3.75;;;21.40;80.10;;;;;;6177470;28;88336;-64
2021/12/05 10:02:49;;;;;;;159.20;108.82;;;21.70;84.40;;;;;;6205921;28;87370;-66
2021/12/05 10:09:27;;;;;;;92.28;60.67;;;21.70;81.40;;;;;;6216291;28;88238;-66
2021/12/05 10:16:15;;;;;;;68.95;44.15;;;21.70;81.00;;;;;;6185194;28;87654;-64
2021/12/05 10:26:32;;;;;;;56.08;34.13;;;21.60;80.80;;;;;;6194224;28;87205;-65
2021/12/05 10:36:21;;;;;;;106.65;59.35;;;21.70;83.50;;;;;;6198147;28;86572;-66
2021/12/05 10:39:25;;;;;;;115.35;60.95;;;21.60;82.70;;;;;;6189397;28;89067;-66
2021/12/05 10:42:38;;;;;;;110.70;57.50;;;21.60;82.80;;;;;;6194647;28;89160;-64
2021/12/05 10:45:42;;;;;;;110.38;58.28;;;21.60;82.80;;;;;;6194344;28;90331;-63
2021/12/05 10:48:47;;;;;;;112.78;57.42;;;21.60;85.70;;;;;;6196135;28;90612;-64
2021/12/05 10:51:55;;;;;;;101.22;55.50;;;21.60;84.50;;;;;;6216006;28;89059;-64
2021/12/05 10:54:58;;;;;;;96.13;52.33;;;21.60;84.40;;;;;;6214546;28;89035;-64
2021/12/05 10:58:04;;;;;;;79.03;41.78;;;21.60;83.80;;;;;;6204578;28;88599;-63
2021/12/05 11:01:13;;;;;;;56.35;33.05;;;21.60;81.30;;;;;;6218235;28;89081;-64
2021/12/05 11:04:19;;;;;;;42.83;26.45;;;21.60;79.80;;;;;;6210169;28;89099;-64
2021/12/05 11:07:23;;;;;;;47.22;25.60;;;21.60;77.60;;;;;;6209934;28;88236;-63
2021/12/05 11:10:26;;;;;;;45.70;22.65;;;21.60;76.90;;;;;;6213403;28;89323;-63
2021/12/05 11:13:29;;;;;;;52.40;23.40;;;21.60;76.30;;;;;;6192133;28;88993;-63
2021/12/05 11:16:40;;;;;;;69.97;28.73;;;21.60;75.50;;;;;;6195261;28;89997;-63
2021/12/05 11:19:44;;;;;;;76.35;30.25;;;21.60;77.10;;;;;;6197130;28;89039;-63
2021/12/05 11:22:48;;;;;;;68.88;29.45;;;21.60;78.70;;;;;;6195929;28;89396;-63
2021/12/05 11:25:52;;;;;;;63.67;27.77;;;21.50;79.40;;;;;;6186656;28;89024;-63
2021/12/05 11:28:54;;;;;;;57.90;26.50;;;21.50;79.70;;;;;;6192802;28;89445;-63
2021/12/05 11:32:07;;;;;;;55.63;24.90;;;21.50;79.90;;;;;;6189186;28;89242;-63
2021/12/05 11:35:29;;;;;;;48.63;22.48;;;21.50;79.90;;;;;;6191248;28;87970;-63
2021/12/05 11:38:32;;;;;;;42.92;21.20;;;21.50;79.80;;;;;;6215604;28;87295;-63
2021/12/05 11:41:38;;;;;;;46.22;20.92;;;21.50;79.80;;;;;;6222303;28;89382;-63
2021/12/05 11:44:42;;;;;;;35.50;19.15;;;21.50;79.80;;;;;;6189066;28;89576;-63
2021/12/05 11:47:44;;;;;;;38.60;18.92;;;21.50;79.80;;;;;;6197733;28;90081;-63
2021/12/05 11:50:46;;;;;;;38.85;18.83;;;21.60;79.90;;;;;;6199272;28;89645;-63
2021/12/05 11:53:50;;;;;;;37.28;17.75;;;21.50;79.70;;;;;;6192479;28;87987;-63
2021/12/05 11:56:56;;;;;;;33.45;16.75;;;21.60;79.80;;;;;;6191915;28;89104;-63
2021/12/05 12:00:01;;;;;;;32.95;16.63;;;21.60;79.80;;;;;;6189174;28;89099;-63
2021/12/05 12:03:03;;;;;;;30.73;15.00;;;21.50;79.80;;;;;;6212122;28;89033;-63
2021/12/05 12:06:07;;;;;;;29.90;15.10;;;21.60;79.90;;;;;;6215578;28;89610;-63
2021/12/05 12:09:09;;;;;;;26.13;14.20;;;21.50;79.80;;;;;;6207207;28;88426;-63
2021/12/05 12:12:13;;;;;;;30.58;14.85;;;21.50;79.80;;;;;;6204638;28;89216;-64
2021/12/05 12:15:17;;;;;;;28.83;14.10;;;21.60;80.00;;;;;;6206721;28;89116;-63
2021/12/05 12:18:25;;;;;;;27.15;13.65;;;21.50;79.90;;;;;;6196554;28;90051;-64
2021/12/05 12:21:37;;;;;;;26.05;13.63;;;21.60;85.40;;;;;;6185753;28;89053;-64
2021/12/05 12:24:40;;;;;;;27.45;13.55;;;21.70;84.40;;;;;;6197261;28;89114;-63
2021/12/05 12:27:44;;;;;;;25.75;13.18;;;21.70;83.30;;;;;;6196203;28;88805;-62
2021/12/05 12:30:52;;;;;;;25.48;13.60;;;21.80;82.60;;;;;;6199595;28;88942;-63
2021/12/05 12:33:57;;;;;;;24.58;12.50;;;21.80;82.20;;;;;;6203398;28;89007;-63
2021/12/05 12:37:03;;;;;;;21.83;12.68;;;21.80;82.20;;;;;;6205453;28;89115;-63
2021/12/05 12:40:06;;;;;;;22.38;12.70;;;21.90;82.00;;;;;;6216987;28;88117;-63
2021/12/05 12:43:31;;;;;;;27.05;13.18;;;21.80;81.80;;;;;;6220513;28;89033;-63
2021/12/05 12:46:38;;;;;;;21.95;13.10;;;21.80;81.70;;;;;;6209650;28;87679;-63
2021/12/05 12:49:42;;;;;;;20.60;12.57;;;21.80;81.60;;;;;;6197120;28;90334;-63
2021/12/05 12:52:57;;;;;;;21.13;12.50;;;21.80;81.80;;;;;;6207004;28;89031;-63
2021/12/05 12:56:05;;;;;;;20.33;12.38;;;21.80;81.50;;;;;;6203581;28;89579;-62
2021/12/05 12:59:10;;;;;;;21.33;13.23;;;21.80;81.50;;;;;;6205052;28;89558;-63
2021/12/05 13:02:36;;;;;;;22.73;12.88;;;21.80;81.50;;;;;;6198966;28;89064;-63
2021/12/05 13:07:15;;;;;;;22.77;13.70;;;21.80;81.30;;;;;;6204016;28;89065;-62
2021/12/05 13:12:47;;;;;;;21.92;13.13;;;21.70;81.00;;;;;;6179554;28;86468;-62
2021/12/05 13:15:57;;;;;;;20.15;13.10;;;21.70;81.00;;;;;;6190267;28;89093;-62
2021/12/05 13:19:09;;;;;;;24.92;13.93;;;21.70;81.00;;;;;;6187806;28;89193;-62
2021/12/05 13:22:11;;;;;;;23.33;13.70;;;21.70;81.10;;;;;;6204098;28;89049;-62
2021/12/05 13:25:13;;;;;;;21.90;13.38;;;21.60;81.00;;;;;;6204933;28;88990;-63
2021/12/05 13:28:30;;;;;;;20.27;13.52;;;21.60;81.00;;;;;;6200282;28;89227;-62
2021/12/05 13:31:48;;;;;;;21.33;13.80;;;21.60;81.00;;;;;;6208065;28;88899;-62
2021/12/05 13:34:53;;;;;;;20.42;13.57;;;21.60;81.10;;;;;;6189667;28;89479;-62
2021/12/05 13:37:56;;;;;;;20.38;14.20;;;21.60;81.00;;;;;;6207222;28;88993;-62
2021/12/05 13:41:14;;;;;;;22.20;13.60;;;21.60;81.00;;;;;;6216702;28;88369;-62
2021/12/05 13:44:17;;;;;;;20.30;13.95;;;21.60;81.00;;;;;;6210289;28;88270;-62
2021/12/05 13:47:19;;;;;;;22.45;13.75;;;21.60;81.00;;;;;;6207353;28;89038;-62
2021/12/05 13:50:29;;;;;;;19.92;14.25;;;21.60;81.00;;;;;;6191629;28;89050;-63
2021/12/05 13:53:35;;;;;;;20.85;13.82;;;21.60;81.00;;;;;;6192501;28;89982;-63
2021/12/05 13:56:37;;;;;;;21.50;13.52;;;21.60;81.00;;;;;;6202448;28;87940;-62
2021/12/05 13:59:39;;;;;;;21.73;14.02;;;21.60;81.00;;;;;;6193495;28;89112;-62
2021/12/05 14:02:56;;;;;;;23.15;14.18;;;21.60;81.10;;;;;;6196381;28;89285;-63
2021/12/05 14:05:59;;;;;;;20.90;13.70;;;21.60;81.20;;;;;;6197530;28;87953;-62
2021/12/05 14:09:05;;;;;;;21.83;14.25;;;21.60;81.30;;;;;;6206841;28;89308;-63
2021/12/05 14:12:11;;;;;;;24.48;14.75;;;21.50;81.20;;;;;;6203174;28;89439;-62
2021/12/05 14:15:15;;;;;;;25.80;13.90;;;21.60;81.40;;;;;;6204670;28;87585;-62
2021/12/05 14:18:20;;;;;;;22.50;14.68;;;21.60;81.50;;;;;;6211448;28;88364;-62
2021/12/05 14:21:26;;;;;;;21.85;13.98;;;21.60;81.30;;;;;;6209827;28;89018;-62
2021/12/05 14:24:31;;;;;;;22.45;13.93;;;21.60;81.30;;;;;;6215814;28;90068;-61
2021/12/05 14:27:36;;;;;;;23.50;14.52;;;21.50;81.20;;;;;;6196809;28;88973;-61
2021/12/05 14:30:38;;;;;;;19.80;13.57;;;21.50;81.30;;;;;;6201977;28;89260;-62
2021/12/05 14:33:49;;;;;;;18.27;13.45;;;21.50;81.10;;;;;;6216898;28;89047;-61
2021/12/05 14:36:55;;;;;;;19.50;13.30;;;21.50;81.10;;;;;;6207278;28;89101;-62
2021/12/05 14:39:59;;;;;;;22.40;14.18;;;21.50;81.10;;;;;;6195200;28;88114;-62
2021/12/05 14:43:07;;;;;;;19.52;13.68;;;21.50;81.10;;;;;;6204674;28;89119;-61
2021/12/05 14:46:10;;;;;;;19.30;13.98;;;21.50;81.10;;;;;;6200177;28;87291;-62
2021/12/05 14:49:12;;;;;;;18.63;14.35;;;21.50;81.10;;;;;;6213069;28;89147;-61
2021/12/05 14:52:22;;;;;;;17.17;13.45;;;21.50;81.10;;;;;;6213797;28;89070;-62
2021/12/05 14:55:27;;;;;;;20.17;14.50;;;21.50;81.10;;;;;;6221378;28;89034;-61
2021/12/05 14:58:30;;;;;;;19.38;14.70;;;21.40;80.90;;;;;;6216137;28;89202;-62
2021/12/05 15:01:33;;;;;;;21.55;14.57;;;21.50;80.90;;;;;;6226057;28;89142;-61
2021/12/05 15:04:40;;;;;;;21.50;15.02;;;21.50;80.90;;;;;;6216121;28;89242;-62
2021/12/05 15:07:44;;;;;;;20.08;15.40;;;21.50;80.80;;;;;;6221682;28;89009;-62
2021/12/05 15:10:52;;;;;;;20.20;14.57;;;21.50;80.80;;;;;;6209883;28;89011;-62
2021/12/05 15:14:05;;;;;;;20.85;15.43;;;21.50;80.70;;;;;;6224468;28;89079;-62
2021/12/05 15:17:11;;;;;;;19.33;15.27;;;21.50;80.70;;;;;;6204918;28;88292;-62
2021/12/05 15:20:17;;;;;;;20.80;15.60;;;21.50;80.60;;;;;;6213878;28;87927;-62
2021/12/05 15:23:21;;;;;;;21.77;15.80;;;21.50;80.60;;;;;;6219618;28;89003;-61
2021/12/05 15:26:31;;;;;;;18.05;15.00;;;21.50;80.60;;;;;;6208006;28;89907;-62
2021/12/05 15:29:33;;;;;;;21.05;16.17;;;21.40;80.50;;;;;;6205225;28;89577;-61
2021/12/05 15:32:35;;;;;;;20.02;16.13;;;21.50;80.60;;;;;;6228014;28;89069;-62
2021/12/05 15:35:39;;;;;;;19.92;16.38;;;21.40;80.60;;;;;;6209358;28;89081;-62
2021/12/05 15:38:42;;;;;;;20.77;16.45;;;21.50;80.60;;;;;;6220989;28;89156;-62
2021/12/05 15:41:44;;;;;;;19.40;15.85;;;21.40;80.50;;;;;;6208503;28;87992;-62
2021/12/05 15:44:47;;;;;;;20.88;16.77;;;21.40;80.60;;;;;;6203417;28;89093;-61
2021/12/05 15:47:50;;;;;;;19.95;16.42;;;21.40;80.60;;;;;;6219313;28;88368;-62
2021/12/05 15:50:52;;;;;;;19.38;15.75;;;21.40;80.60;;;;;;6212059;28;89193;-62
2021/12/05 15:53:58;;;;;;;18.77;15.60;;;21.40;80.60;;;;;;6220977;28;89089;-62
2021/12/05 15:57:10;;;;;;;20.02;16.63;;;21.40;81.60;;;;;;6219752;28;90405;-62
2021/12/05 16:00:18;;;;;;;19.23;16.50;;;21.40;80.70;;;;;;6196716;28;89402;-62
2021/12/05 16:03:23;;;;;;;20.25;16.67;;;21.40;80.70;;;;;;6209784;28;89148;-61
2021/12/05 16:06:33;;;;;;;22.15;17.60;;;21.40;80.70;;;;;;6212403;28;89765;-62
2021/12/05 16:09:38;;;;;;;19.25;16.77;;;21.40;80.60;;;;;;6208807;28;89089;-61
2021/12/05 16:12:43;;;;;;;20.05;17.10;;;21.30;80.50;;;;;;6215197;28;89235;-62
2021/12/05 16:15:47;;;;;;;21.05;17.52;;;21.30;80.50;;;;;;6194675;28;89103;-61
2021/12/05 16:18:53;;;;;;;18.67;16.27;;;21.40;80.80;;;;;;6195390;28;88610;-61
2021/12/05 16:21:55;;;;;;;18.85;16.25;;;21.30;80.70;;;;;;6202169;28;89678;-61
2021/12/05 16:25:15;;;;;;;19.48;16.67;;;21.40;80.70;;;;;;6191958;28;89074;-61
2021/12/05 16:28:25;;;;;;;21.33;17.10;;;21.30;80.70;;;;;;6192769;28;90008;-61
2021/12/05 16:31:31;;;;;;;20.13;16.70;;;21.40;80.80;;;;;;6194217;28;89478;-61
2021/12/05 16:34:37;;;;;;;19.15;16.50;;;21.40;80.80;;;;;;6194633;28;88909;-61
2021/12/05 16:37:40;;;;;;;19.08;16.48;;;21.40;80.70;;;;;;6201753;28;89926;-61
2021/12/05 16:40:53;;;;;;;19.90;16.88;;;21.40;80.80;;;;;;6201888;28;89044;-61
2021/12/05 16:43:59;;;;;;;20.45;16.67;;;21.40;80.80;;;;;;6204486;28;88315;-61
2021/12/05 16:47:04;;;;;;;19.92;17.30;;;21.40;80.80;;;;;;6201934;28;89047;-61
2021/12/05 16:50:13;;;;;;;20.02;16.90;;;21.40;80.80;;;;;;6206215;28;88241;-61
2021/12/05 16:53:16;;;;;;;19.38;16.92;;;21.40;80.80;;;;;;6209561;28;89010;-61
2021/12/05 16:56:38;;;;;;;19.70;16.42;;;21.40;80.80;;;;;;6202901;28;89290;-61
2021/12/05 16:59:43;;;;;;;20.38;16.42;;;21.40;80.80;;;;;;6210395;28;90089;-61
2021/12/05 17:02:51;;;;;;;19.58;17.05;;;21.40;80.80;;;;;;6202682;28;89669;-62
2021/12/05 17:05:59;;;;;;;19.02;16.33;;;21.30;80.70;;;;;;6210376;28;88106;-62
2021/12/05 17:09:11;;;;;;;18.67;16.50;;;21.30;80.70;;;;;;6213728;28;89006;-61
2021/12/05 17:12:32;;;;;;;20.83;16.80;;;21.30;80.70;;;;;;6193616;28;88146;-61
2021/12/05 17:15:37;;;;;;;18.85;16.85;;;21.30;80.60;;;;;;6204987;28;90287;-61
2021/12/05 17:18:42;;;;;;;18.50;15.85;;;21.30;80.70;;;;;;6224540;28;89180;-61
2021/12/05 17:21:48;;;;;;;18.83;16.55;;;21.30;80.50;;;;;;6223330;28;88458;-61
2021/12/05 17:24:52;;;;;;;18.15;15.98;;;21.30;80.60;;;;;;6215347;28;89119;-61
2021/12/05 17:27:55;;;;;;;17.98;16.02;;;21.30;80.50;;;;;;6223318;28;88957;-61
2021/12/05 17:30:59;;;;;;;18.63;16.35;;;21.30;80.50;;;;;;6211044;28;89992;-61
2021/12/05 17:34:04;;;;;;;18.13;16.23;;;21.30;80.50;;;;;;6215516;28;89128;-61
2021/12/05 17:37:09;;;;;;;18.48;16.17;;;21.20;80.40;;;;;;6209464;28;89034;-61
2021/12/05 17:40:12;;;;;;;17.40;15.45;;;21.30;80.50;;;;;;6200701;28;89100;-61
2021/12/05 17:43:16;;;;;;;19.17;15.88;;;21.30;80.40;;;;;;6199737;28;88930;-61
2021/12/05 17:46:18;;;;;;;17.15;15.25;;;21.30;80.30;;;;;;6206631;28;89135;-61
2021/12/05 17:49:24;;;;;;;17.40;15.05;;;21.30;80.20;;;;;;6210345;28;88044;-61
2021/12/05 17:52:29;;;;;;;17.75;15.93;;;21.30;80.10;;;;;;6218102;28;88711;-61
2021/12/05 17:55:38;;;;;;;17.13;15.27;;;21.30;80.00;;;;;;6209787;28;89082;-61
2021/12/05 17:59:04;;;;;;;17.52;15.18;;;21.30;80.00;;;;;;6213448;28;89131;-61
2021/12/05 18:05:30;;;;;;;18.00;16.02;;;21.30;79.90;;;;;;6185212;28;87213;-61
2021/12/05 18:08:32;;;;;;;17.60;15.63;;;21.30;79.90;;;;;;6207091;28;89032;-61
2021/12/05 18:11:35;;;;;;;16.98;15.10;;;21.30;79.90;;;;;;6193651;28;89129;-61
2021/12/05 18:14:40;;;;;;;17.23;15.43;;;21.30;79.90;;;;;;6192661;28;89297;-61
2021/12/05 18:17:42;;;;;;;16.50;14.80;;;21.30;80.70;;;;;;6214089;28;89223;-61
2021/12/05 18:20:44;;;;;;;17.00;14.98;;;21.30;79.90;;;;;;6204701;28;89737;-61
2021/12/05 18:23:47;;;;;;;16.48;14.85;;;21.30;79.90;;;;;;6207705;28;88693;-61
2021/12/05 18:26:52;;;;;;;16.75;15.05;;;21.30;79.90;;;;;;6213362;28;89143;-61
2021/12/05 18:29:55;;;;;;;17.30;15.50;;;21.30;79.90;;;;;;6206820;28;89124;-61
2021/12/05 18:32:59;;;;;;;16.30;14.65;;;21.30;80.00;;;;;;6203196;28;89959;-62
2021/12/05 18:36:02;;;;;;;17.08;15.38;;;21.20;79.90;;;;;;6206774;28;89316;-61
2021/12/05 18:39:05;;;;;;;17.67;15.35;;;21.30;80.00;;;;;;6214409;28;89071;-61
2021/12/05 18:42:09;;;;;;;17.73;15.85;;;21.20;80.00;;;;;;6210108;28;89030;-61
2021/12/05 18:45:16;;;;;;;17.20;15.40;;;21.30;81.00;;;;;;6213161;28;88250;-61
2021/12/05 18:48:19;;;;;;;17.52;15.65;;;21.20;80.00;;;;;;6225168;28;88794;-62
2021/12/05 18:51:21;;;;;;;17.58;15.77;;;21.20;80.00;;;;;;6222664;28;89230;-61
2021/12/05 18:54:24;;;;;;;16.83;15.13;;;21.20;80.00;;;;;;6221645;28;88365;-62
2021/12/05 18:57:26;;;;;;;18.10;16.20;;;21.20;80.00;;;;;;6210185;28;89634;-61
2021/12/05 19:00:38;;;;;;;17.75;15.95;;;21.20;80.00;;;;;;6204636;28;89931;-61
2021/12/05 19:07:10;;;;;;;17.98;16.17;;;21.20;80.00;;;;;;6211497;28;87287;-61
2021/12/05 19:13:38;;;;;;;17.88;16.08;;;21.30;80.00;;;;;;6208096;28;89470;-61
2021/12/05 19:16:42;;;;;;;17.25;15.50;;;21.20;79.90;;;;;;6208290;28;88998;-61
2021/12/05 19:19:47;;;;;;;17.50;15.70;;;21.20;79.90;;;;;;6219241;28;89087;-61
2021/12/05 19:22:52;;;;;;;18.48;16.65;;;21.30;79.90;;;;;;6218112;28;89329;-61
2021/12/05 19:25:55;;;;;;;17.73;15.93;;;21.30;79.90;;;;;;6199881;28;88370;-61
2021/12/05 19:28:59;;;;;;;17.70;15.80;;;21.30;79.80;;;;;;6219896;28;88246;-61
2021/12/05 19:32:04;;;;;;;18.70;16.63;;;21.30;79.80;;;;;;6225851;28;89041;-62
2021/12/05 19:35:08;;;;;;;17.98;16.17;;;21.30;79.80;;;;;;6217633;28;90054;-61
2021/12/05 19:38:11;;;;;;;17.48;15.75;;;21.30;79.90;;;;;;6205698;28;89358;-61
2021/12/05 19:41:15;;;;;;;18.88;16.88;;;21.30;79.80;;;;;;6225648;28;89300;-61
2021/12/05 19:44:19;;;;;;;17.63;15.82;;;21.30;79.90;;;;;;6226202;28;89138;-61
2021/12/05 19:47:23;;;;;;;18.73;16.73;;;21.30;79.90;;;;;;6222765;28;89250;-61
2021/12/05 19:50:28;;;;;;;18.55;16.65;;;21.20;79.90;;;;;;6218103;28;89362;-61
2021/12/05 19:53:30;;;;;;;18.38;16.55;;;21.20;79.90;;;;;;6215361;28;89288;-61
2021/12/05 19:56:32;;;;;;;18.00;16.20;;;21.30;80.00;;;;;;6201516;28;87303;-61
2021/12/05 19:59:34;;;;;;;17.75;15.93;;;21.20;80.00;;;;;;6214035;28;89084;-61
2021/12/05 20:02:38;;;;;;;17.65;15.75;;;21.20;80.00;;;;;;6212175;28;89068;-61
2021/12/05 20:05:41;;;;;;;18.63;16.77;;;21.20;80.00;;;;;;6222540;28;90647;-61
2021/12/05 20:08:44;;;;;;;17.83;16.02;;;21.20;80.00;;;;;;6199164;28;89052;-61
2021/12/05 20:11:48;;;;;;;18.67;16.77;;;21.20;80.00;;;;;;6218786;28;89059;-62